Hit Tracker is now ESPN Home Run Tracker! Hit Tracker founder Greg Rybarczyk is now collaborating with the ESPN Stats & Information Group to continue tracking all MLB home runs, and helping baseball fans know "How Far It Really Went!™" Please credit any information on this site to ESPN Stats & Information Group. For more information and analysis on home runs, please contact founder Greg Rybarczyk. E-Mail ESPN Home Run Tracker
Main Page | Ballparks | Park Overlays | Glossary | Highlight Homers | Feedback | Bio | 3 Types of HR's | AAA Home Run Derby Last Updated: September 29, 2016, 11:12 pm PST
If you want to know "How Far It Really Went!", then you've come to the right place! Welcome to the ESPN Home Run Tracker, where you can find accurate, transparently verifiable distances for every home run hit in MLB games. Please also check out the ESPN MLB Scoreboard throughout the 2016 season! Contact us at grybar@hittrackeronline.com.
Season:
Ballpark detail for PNC Park
Ballpark # of Home Runs HR per game Avg.
True
Distance
Avg.
Speed
Off
Bat
Avg.
Std.
Dist.
PNC Park 148 1.83 402.3 103.9 399.8

Scatter Plot of Home Runs PNC Park
 Overlay Ballpark:
Without range rings   With range rings

2016 Season Home Runs for PNC Park
Click headers to sort
Date Video Path Hitter Hitter
Team
Pitcher Pitcher
Team
INN Ballpark Type/
Luck
True
Dist.
Speed
Off
Bat
Elev.
Angle
Horiz.
Angle
Apex Impact Due To: Std.
Dist.
#
Parks
Wind Temp. Alt. ^
04/16/16 Video View McCutchen, Andrew PIT Jungmann, Taylor MIL 5 PNC Park PL 404 105.1 34.2 108.0 131 -2 1 4 402 30
06/24/16 Video View Kang, Jung Ho PIT Tepesch, Nick LAD 3 PNC Park PL 341 97.8 39.9 118.4 132 0 3 4 335 7
06/24/16 Video View Joyce, Matt PIT Hatcher, Chris LAD 7 PNC Park JE/L 360 98.6 39.2 71.6 139 7 2 4 347 1
08/06/16 Video View Phillips, Brandon CIN Nova, Ivan PIT 7 PNC Park PL 360 100.4 37.9 115.0 133 -3 1 4 357 26
09/10/16 Video View Kang, Jung Ho PIT Stephenson, Robert CIN 3 PNC Park PL/L 341 93.8 43.0 120.8 127 38 0 4 300 0
09/10/16 Video View Votto, Joey CIN Nicasio, Juan PIT 9 PNC Park ND 417 105.0 36.0 71.3 137 23 1 4 390 30
09/24/16 Video View Bell, Josh PIT Ross, Joe WSH 3 PNC Park JE 354 100.0 38.8 69.7 142 -1 -3 4 353 17
04/17/16 Video View Rodriguez, Sean PIT Torres, Carlos MIL 8 PNC Park ND 449 115.8 29.6 118.2 111 -7 4 3 449 30
04/15/16 Video View Braun, Ryan MIL Feliz, Neftali PIT 8 PNC Park PL 417 103.2 31.4 87.5 124 -2 -2 3 419 27
05/01/16 Video View Polanco, Gregory PIT Adleman, Tim CIN 5 PNC Park ND 411 106.7 31.2 63.3 104 0 1 3 407 30
05/04/16 Video View Rizzo, Anthony CHC Vogelsong, Ryan PIT 7 PNC Park JE/L 388 99.2 35.1 80.0 126 4 0 3 382 13
05/20/16 Video View Arenado, Nolan COL Cole, Gerrit PIT 6 PNC Park PL 391 101.0 34.8 111.9 116 10 0 3 378 30
05/24/16 Video View Polanco, Gregory PIT Miller, Shelby ARI 1 PNC Park PL 403 101.8 33.2 78.2 122 0 2 3 398 29
05/25/16 Video View Tomas, Yasmany ARI Locke, Jeff PIT 2 PNC Park ND 416 108.6 31.3 120.6 104 -1 2 3 412 30
05/25/16 Video View Rodriguez, Sean PIT De La Rosa, Rubby ARI 4 PNC Park PL 407 105.0 32.1 112.5 111 0 2 3 403 30
06/03/16 Video View Calhoun, Kole LAA Liriano, Francisco PIT 4 PNC Park PL 428 104.3 30.9 84.8 119 0 2 3 424 27
06/10/16 Video View Moss, Brandon STL Nicasio, Juan PIT 12 PNC Park JE 378 101.1 36.9 75.0 140 0 0 3 374 21
06/21/16 Video View Gillaspie, Conor SF Boscan, Wilfredo PIT 4 PNC Park ND 392 103.0 33.1 63.1 108 0 2 3 387 30
06/22/16 Video View Polanco, Gregory PIT Samardzija, Jeff SF 2 PNC Park ND 382 101.3 34.1 63.5 111 0 2 3 378 30
07/09/16 Video View Rodriguez, Sean PIT Lester, Jon CHC 3 PNC Park PL 426 105.7 30.7 101.9 117 -1 2 3 423 30
08/09/16 Video View Myers, Wil SD Bastardo, Antonio PIT 8 PNC Park PL 414 106.7 32.3 109.5 122 -7 3 3 414 30
09/04/16 Video View Carter, Chris MIL Marte, Kelvin PIT 9 PNC Park PL 422 103.1 31.9 87.4 124 0 2 3 417 27
09/04/16 Video View Santana, Domingo MIL Marte, Kelvin PIT 9 PNC Park PL 410 102.6 34.1 95.8 134 0 3 3 404 20
09/06/16 Video View Adams, Matt STL Vogelsong, Ryan PIT 3 PNC Park ND 428 108.1 30.8 67.6 108 3 3 3 420 30
09/06/16 Video View Grichuk, Randal STL Watson, Tony PIT 9 PNC Park PL 411 105.0 33.0 107.9 123 0 1 3 406 30
09/25/16 Video View Kang, Jung Ho PIT Glover, Koda WSH 7 PNC Park ND 432 108.1 32.6 110.1 122 11 1 3 418 30
09/28/16 Video View Rizzo, Anthony CHC Taillon, Jameson PIT 1 PNC Park JE/L 341 95.8 38.9 68.2 128 0 0 3 337 3
04/13/16 Video View Saltalamacchia, Jarrod DET Caminero, Arquimedes PIT 6 PNC Park PL 374 100.4 31.1 64.1 94 -3 -3 2 378 29
04/29/16 Video View Harrison, Josh PIT Straily, Dan CIN 4 PNC Park JE 360 96.3 33.7 67.9 103 0 -3 2 360 18
04/29/16 Video View Joyce, Matt PIT Hoover, J.J. CIN 7 PNC Park JE 332 93.0 35.8 119.5 100 -2 -3 2 335 4
04/30/16 Video View Jaso, John PIT Simon, Alfredo CIN 1 PNC Park PL 403 101.9 27.7 78.5 90 0 -1 2 403 28
05/02/16 Video View McCutchen, Andrew PIT Hammel, Jason CHC 1 PNC Park PL 402 101.9 28.3 76.0 91 2 -1 2 400 29
05/16/16 Video View Francoeur, Jeff ATL Niese, Jonathon PIT 6 PNC Park PL 406 107.0 27.7 114.8 86 -1 -1 2 407 30
05/16/16 Video View Joyce, Matt PIT Ogando, Alexi ATL 7 PNC Park PL 366 98.2 32.6 64.7 98 -2 -2 2 367 28
05/17/16 Video View Smith, Mallex ATL Nicasio, Juan PIT 3 PNC Park PL 403 105.1 26.5 70.9 80 0 0 2 403 30
05/17/16 Video View Smith, Mallex ATL Caminero, Arquimedes PIT 7 PNC Park JE 350 95.1 34.7 64.4 102 0 -1 2 350 19
05/19/16 Video View Polanco, Gregory PIT Foltynewicz, Mike ATL 2 PNC Park JE 410 103.2 27.0 101.6 88 0 0 2 408 30
05/19/16 Video View Francoeur, Jeff ATL Locke, Jeff PIT 6 PNC Park PL 426 107.7 26.8 105.3 91 0 -1 2 425 30
06/03/16 Video View Marte, Starling PIT Weaver, Jered LAA 2 PNC Park JE 390 99.8 29.6 106.2 92 0 2 2 387 28
06/03/16 Video View Kang, Jung Ho PIT Weaver, Jered LAA 2 PNC Park PL 431 107.9 28.5 106.5 101 0 2 2 428 30
06/04/16 Video View Polanco, Gregory PIT Salas, Fernando LAA 7 PNC Park ND 449 112.7 27.1 70.5 96 0 2 2 445 30
06/07/16 Video View Granderson, Curtis NYM Feliz, Neftali PIT 8 PNC Park PL 402 102.8 30.2 73.7 105 -3 0 2 403 30
06/11/16 Video View Holliday, Matt STL Liriano, Francisco PIT 5 PNC Park PL 372 98.4 32.6 67.1 100 -3 2 2 371 28
06/12/16 Video View Holliday, Matt STL Niese, Jonathon PIT 1 PNC Park PL 367 97.7 31.0 68.0 93 -5 1 2 369 23
06/20/16 Video View Kratz, Erik PIT Bumgarner, Madison SF 5 PNC Park JE 347 94.2 34.8 118.9 96 0 3 2 342 5
06/22/16 Video View Jaso, John PIT Samardzija, Jeff SF 1 PNC Park PL 410 102.7 28.8 75.8 94 3 1 2 405 29
06/24/16 Video View Puig, Yasiel LAD Hughes, Jared PIT 6 PNC Park ND 437 110.2 26.8 107.9 92 0 1 2 434 30
06/25/16 Video View McCutchen, Andrew PIT Maeda, Kenta LAD 6 PNC Park JE 401 101.9 31.1 101.6 114 -9 2 2 404 30
07/08/16 Video View Freese, David PIT Arrieta, Jake CHC 2 PNC Park JE 344 95.1 30.7 57.3 76 -1 1 2 343 19
07/08/16 Video View Rodriguez, Sean PIT Arrieta, Jake CHC 2 PNC Park PL 413 107.8 27.8 115.1 87 -2 2 2 411 30
07/09/16 Video View Zobrist, Ben CHC Kuhl, Chad PIT 1 PNC Park ND 403 103.8 29.2 71.0 96 -3 1 2 403 30
07/09/16 Video View Bell, Josh PIT Warren, Adam CHC 5 PNC Park ND 422 107.5 30.1 69.8 108 -2 1 2 420 30
07/09/16 Video View Mercer, Jordy PIT Warren, Adam CHC 5 PNC Park JE 404 101.9 29.1 102.5 98 -1 0 2 403 30
07/10/16 Video View McCutchen, Andrew PIT Lackey, John CHC 3 PNC Park PL 413 101.0 30.7 97.5 106 5 2 2 405 22
07/24/16 Video View Frazier, Adam PIT Ramos, Edubray PHI 7 PNC Park ND 396 103.5 32.1 62.5 102 0 4 2 390 30
07/26/16 Video View Liriano, Francisco PIT Hernandez, Felix SEA 2 PNC Park PL 425 103.2 28.0 87.8 101 -1 2 2 422 27
08/19/16 Video View Freese, David PIT Koehler, Tom MIA 4 PNC Park JE 409 100.8 28.6 84.9 97 0 1 2 407 16
08/21/16 Video View Yelich, Christian MIA Vogelsong, Ryan PIT 1 PNC Park JE 414 101.4 31.3 90.1 116 0 3 2 410 19
08/22/16 Video View Bregman, Alex HOU Feliz, Neftali PIT 9 PNC Park PL 415 101.8 28.3 86.0 99 0 0 2 413 22
08/24/16 Video View Mercer, Jordy PIT McHugh, Collin HOU 3 PNC Park JE 380 100.0 31.5 114.2 96 -3 3 2 378 30
09/04/16 Video View Santana, Domingo MIL Brault, Steven PIT 2 PNC Park JE/L 410 100.2 32.8 90.4 118 5 3 2 400 1
09/06/16 Video View Molina, Yadier STL Vogelsong, Ryan PIT 1 PNC Park PL 347 93.6 37.0 58.4 101 9 3 2 333 4
09/06/16 Video View Kang, Jung Ho PIT Weaver, Luke STL 4 PNC Park PL 408 104.8 29.6 114.3 91 3 2 2 401 30
09/06/16 Video View Carpenter, Matt STL Watson, Tony PIT 9 PNC Park PL 411 103.1 30.4 76.1 106 0 1 2 408 29
09/09/16 Video View Phillips, Brandon CIN Hughes, Jared PIT 6 PNC Park PL 392 102.1 31.8 110.7 106 -3 1 2 392 30
04/17/16 Video View McCutchen, Andrew PIT Capuano, Chris MIL 5 PNC Park PL 430 104.8 25.8 89.6 93 -1 1 1 428 27
04/13/16 Video View Kinsler, Ian DET Vogelsong, Ryan PIT 4 PNC Park JE 410 102.0 25.5 90.6 85 0 -1 1 411 15
04/14/16 Video View Castellanos, Nick DET Watson, Tony PIT 8 PNC Park JE 402 102.6 25.9 102.7 75 3 0 1 399 30
04/15/16 Video View Braun, Ryan MIL Lobstein, Kyle PIT 6 PNC Park PL 436 106.4 25.3 91.9 92 0 -1 1 436 30
04/05/16 Video View Gyorko, Jedd STL Niese, Jonathon PIT 4 PNC Park JE 370 107.7 23.0 122.3 56 0 -2 1 372 30
04/30/16 Video View Rodriguez, Sean PIT Cotham, Caleb CIN 8 PNC Park JE 390 106.8 22.6 107.3 61 -1 -1 1 391 30
05/01/16 Video View Jaso, John PIT Ohlendorf, Ross CIN 9 PNC Park JE/L 393 107.9 22.2 72.4 60 0 1 1 392 26
05/04/16 Video View Joyce, Matt PIT Warren, Adam CHC 7 PNC Park JE 398 101.9 28.0 75.1 89 -1 0 1 397 29
05/16/16 Video View Johnson, Kelly ATL Luebke, Cory PIT 8 PNC Park JE 414 103.8 23.8 86.4 81 0 -1 1 413 20
05/18/16 Video View Kang, Jung Ho PIT Vizcaino, Arodys ATL 9 PNC Park PL 424 108.7 26.0 107.3 86 0 -2 1 424 30
05/25/16 Video View Weeks, Rickie ARI Locke, Jeff PIT 5 PNC Park PL 369 100.2 30.7 124.1 83 0 1 1 367 30
05/25/16 Video View Freese, David PIT De La Rosa, Rubby ARI 5 PNC Park PL 433 104.9 28.5 94.5 107 0 1 1 430 29
05/26/16 Video View Cole, Gerrit PIT Corbin, Patrick ARI 2 PNC Park JE 408 100.7 27.4 94.9 90 0 2 1 405 13
06/04/16 Video View Calhoun, Kole LAA Locke, Jeff PIT 1 PNC Park JE 411 100.8 27.5 88.6 92 0 1 1 408 12
06/04/16 Video View Robinson, Shane LAA Locke, Jeff PIT 6 PNC Park PL 353 97.9 28.5 122.1 70 -1 1 1 352 22
06/04/16 Video View Joyce, Matt PIT Mahle, Greg LAA 7 PNC Park PL 434 105.4 25.9 89.2 93 0 1 1 432 28
06/05/16 Video View Pujols, Albert LAA Watson, Tony PIT 8 PNC Park PL 405 105.7 24.4 104.9 71 0 1 1 404 30
06/07/16 Video View Mercer, Jordy PIT Bastardo, Antonio NYM 6 PNC Park PL 415 102.9 26.3 94.6 91 -2 0 1 416 25
06/08/16 Video View Kelly, Ty NYM Taillon, Jameson PIT 4 PNC Park PL 403 106.0 25.2 71.9 76 -1 0 1 403 30
06/10/16 Video View Carpenter, Matt STL Feliz, Neftali PIT 8 PNC Park PL 392 112.4 23.1 53.6 59 -1 1 1 392 30
06/12/16 Video View Grichuk, Randal STL Niese, Jonathon PIT 6 PNC Park PL 395 108.9 24.2 118.7 63 1 0 1 392 30
06/21/16 Video View Freese, David PIT Kontos, George SF 8 PNC Park JE 393 102.1 27.2 72.3 81 0 0 1 392 29
06/22/16 Video View Kang, Jung Ho PIT Samardzija, Jeff SF 3 PNC Park PL 414 102.0 28.2 84.0 97 -1 1 1 412 23
06/23/16 Video View Williamson, Mac SF Niese, Jonathon PIT 6 PNC Park PL 431 109.4 22.9 99.1 75 0 0 1 430 30
06/25/16 Video View McCutchen, Andrew PIT Maeda, Kenta LAD 4 PNC Park PL 414 107.9 27.3 111.7 89 -6 2 1 416 30
06/25/16 Video View Mercer, Jordy PIT Blanton, Joe LAD 6 PNC Park PL 421 104.5 24.0 89.5 83 0 0 1 421 26
06/26/16 Video View Turner, Justin LAD Kuhl, Chad PIT 3 PNC Park JE 389 106.5 22.9 108.8 61 0 1 1 388 26
07/08/16 Video View Montero, Miguel CHC Nicasio, Juan PIT 6 PNC Park JE 376 98.5 29.3 71.1 86 -2 1 1 376 22
07/08/16 Video View Rizzo, Anthony CHC Feliz, Neftali PIT 7 PNC Park PL 420 103.1 27.6 82.7 94 0 1 1 416 28
07/09/16 Video View McCutchen, Andrew PIT Lester, Jon CHC 3 PNC Park PL 419 111.9 23.3 110.6 68 -1 0 1 418 30
07/10/16 Video View Almora Jr., Albert CHC Niese, Jonathon PIT 4 PNC Park JE 389 102.3 26.8 110.2 76 0 1 1 386 30
07/21/16 Video View Joyce, Matt PIT Garza, Matt MIL 1 PNC Park JE 387 108.0 22.6 67.3 59 0 1 1 386 27
07/21/16 Video View Villar, Jonathan MIL Liriano, Francisco PIT 3 PNC Park PL 424 103.3 27.4 92.7 97 -1 2 1 422 26
07/24/16 Video View Blanco, Andres PHI Taillon, Jameson PIT 1 PNC Park PL 420 104.5 25.9 81.0 85 0 3 1 417 28
07/24/16 Video View Joyce, Matt PIT Velasquez, Vince PHI 6 PNC Park PL 444 106.8 26.1 90.2 96 0 2 1 441 30
07/26/16 Video View Polanco, Gregory PIT Hernandez, Felix SEA 1 PNC Park JE 411 101.5 26.2 88.3 86 0 1 1 409 15
07/26/16 Video View Gutierrez, Franklin SEA Liriano, Francisco PIT 3 PNC Park JE 354 95.6 31.2 61.2 81 1 2 1 350 18
07/26/16 Video View Seager, Kyle SEA Liriano, Francisco PIT 3 PNC Park PL 374 101.6 27.4 61.4 71 1 1 1 371 28
07/27/16 Video View McCutchen, Andrew PIT Rollins, David SEA 8 PNC Park PL 422 102.9 27.1 90.5 94 0 1 1 420 27
08/05/16 Video View Rodriguez, Sean PIT Ohlendorf, Ross CIN 9 PNC Park PL 412 106.1 24.9 104.7 76 0 1 1 410 30
08/06/16 Video View Phillips, Brandon CIN Nova, Ivan PIT 2 PNC Park PL 406 107.2 25.5 111.6 74 0 1 1 404 30
08/07/16 Video View Joyce, Matt PIT Straily, Dan CIN 5 PNC Park ND 447 108.2 25.2 84.5 89 1 2 1 443 29
08/07/16 Video View Harrison, Josh PIT Straily, Dan CIN 6 PNC Park PL 374 102.1 27.5 121.5 71 0 2 1 371 30
08/09/16 Video View Polanco, Gregory PIT Perdomo, Luis SD 5 PNC Park ND 448 108.8 25.8 81.7 92 3 1 1 443 30
08/19/16 Video View Realmuto, J.T. MIA Cole, Gerrit PIT 6 PNC Park JE 403 99.8 28.2 85.2 93 0 1 1 401 8
08/19/16 Video View Yelich, Christian MIA Cole, Gerrit PIT 7 PNC Park JE 387 105.6 24.0 111.5 64 0 0 1 386 30
08/19/16 Video View Rojas, Miguel MIA Rivero, Felipe PIT 8 PNC Park PL 400 104.6 26.7 110.8 79 0 1 1 398 30
08/20/16 Video View Scruggs, Xavier MIA Kuhl, Chad PIT 4 PNC Park ND 428 114.5 22.5 109.6 67 0 1 1 427 30
08/22/16 Video View Hernandez, Teoscar HOU Taillon, Jameson PIT 5 PNC Park PL 415 107.5 26.5 110.6 82 0 0 1 413 30
08/23/16 Video View Polanco, Gregory PIT Musgrove, Joe HOU 3 PNC Park PL 371 102.6 26.6 121.5 67 0 1 1 369 30
08/24/16 Video View Gattis, Evan HOU Cole, Gerrit PIT 2 PNC Park PL 416 102.4 26.4 86.6 90 -1 2 1 414 22
09/03/16 Video View Carter, Chris MIL Nova, Ivan PIT 6 PNC Park PL 401 106.7 26.9 116.5 79 0 1 1 400 30
09/03/16 Video View McCutchen, Andrew PIT Torres, Carlos MIL 7 PNC Park JE 397 101.1 26.6 79.2 83 -1 0 1 397 25
09/04/16 Video View Villar, Jonathan MIL Nicasio, Juan PIT 6 PNC Park JE 371 102.9 26.1 120.5 66 -1 2 1 369 30
09/05/16 Video View Gyorko, Jedd STL Locke, Jeff PIT 4 PNC Park ND 393 105.8 28.4 123.5 80 -1 1 1 391 30
09/05/16 Video View McCutchen, Andrew PIT Wainwright, Adam STL 5 PNC Park PL 428 104.4 25.5 88.3 83 2 1 1 425 27
09/05/16 Video View Frazier, Adam PIT Socolovich, Miguel STL 9 PNC Park JE 388 100.1 28.4 72.1 83 2 1 1 384 26
09/06/16 Video View Peralta, Jhonny STL Watson, Tony PIT 9 PNC Park JE 389 101.3 26.9 73.5 78 0 0 1 388 26
09/07/16 Video View Kang, Jung Ho PIT Reyes, Alex STL 8 PNC Park PL 420 104.0 25.3 95.1 84 0 1 1 418 26
09/23/16 Video View Ramos, Wilson WSH Bastardo, Antonio PIT 6 PNC Park PL 433 107.2 25.5 81.0 89 0 0 1 432 30
09/26/16 Video View Baez, Javier CHC Kuhl, Chad PIT 4 PNC Park PL 360 107.2 22.3 125.1 52 -2 -1 1 361 25
09/26/16 Video View Joyce, Matt PIT Rondon, Hector CHC 8 PNC Park PL 403 103.8 26.3 103.8 86 -3 -1 1 405 30
09/26/16 Video View Freese, David PIT Rondon, Hector CHC 8 PNC Park PL 409 102.9 26.6 81.6 92 -4 -1 1 411 28
09/28/16 Video View Jaso, John PIT Arrieta, Jake CHC 4 PNC Park PL 373 101.0 27.2 66.3 76 -2 0 1 375 27
04/15/16 Video View Joyce, Matt PIT Nelson, Jimmy MIL 7 PNC Park JE 406 104.7 21.7 86.2 66 0 0 0 406 6
04/06/16 Video View Hazelbaker, Jeremy STL Nicasio, Juan PIT 6 PNC Park JE 408 105.7 22.6 81.4 70 0 0 0 408 24
05/04/16 Video View Zobrist, Ben CHC Nicasio, Juan PIT 3 PNC Park PL 419 111.4 21.3 77.2 64 1 0 0 417 29
05/18/16 Video View Flowers, Tyler ATL Liriano, Francisco PIT 6 PNC Park PL 429 106.0 23.7 88.3 83 0 -1 0 428 27
05/21/16 Video View Adames, Cristhian COL Hughes, Jared PIT 9 PNC Park JE 414 104.8 22.4 88.1 73 0 -1 0 413 18
06/04/16 Video View Kang, Jung Ho PIT Chacin, Jhoulys LAA 2 PNC Park JE 408 103.5 23.4 95.0 76 0 0 0 407 15
06/08/16 Video View Conforto, Michael NYM Hughes, Jared PIT 8 PNC Park JE 405 102.5 24.0 85.4 75 0 0 0 404 8
06/21/16 Video View Pagan, Angel SF Boscan, Wilfredo PIT 4 PNC Park JE 405 103.2 23.2 85.3 71 0 0 0 405 11
07/10/16 Video View Rodriguez, Sean PIT Lackey, John CHC 2 PNC Park ND 450 111.9 21.0 90.0 73 0 1 0 449 30
07/22/16 Video View Rupp, Cameron PHI Niese, Jonathon PIT 9 PNC Park PL 415 106.9 23.5 78.9 72 0 0 0 414 29
07/24/16 Video View Herrera, Odubel PHI Taillon, Jameson PIT 6 PNC Park JE 413 108.1 20.6 83.8 62 1 0 0 411 15
08/09/16 Video View Blash, Jabari SD Watson, Tony PIT 9 PNC Park PL 410 109.3 22.6 105.5 66 0 0 0 409 30
08/23/16 Video View Polanco, Gregory PIT Sipp, Tony HOU 5 PNC Park JE/L 401 104.3 22.2 83.4 66 0 0 0 401 11
09/03/16 Video View Marte, Starling PIT Knebel, Corey MIL 8 PNC Park PL 444 110.7 21.2 89.7 73 0 0 0 443 29
09/05/16 Video View Adams, Matt STL Locke, Jeff PIT 5 PNC Park PL 427 108.9 21.3 85.9 67 -1 0 0 428 24
09/06/16 Video View Kang, Jung Ho PIT Oh, Seung Hwan STL 9 PNC Park JE 421 108.5 20.6 86.3 64 0 0 0 421 23
09/23/16 Video View Espinosa, Danny WSH Taillon, Jameson PIT 2 PNC Park PL 423 107.0 21.8 87.8 70 0 0 0 423 25
09/25/16 Video View Werth, Jayson WSH Rivero, Felipe PIT 8 PNC Park JE 414 108.7 19.2 90.6 58 0 0 0 414 10
09/26/16 Video View Bryant, Kris CHC Brault, Steven PIT 6 PNC Park JE 406 111.2 20.7 103.9 60 1 0 0 405 30


About HitTracker | Contact Us
© 2006-2016 HitTrackerOnline